Bookmark and Share
Track history (hours):
 

Oberon

Last reported at 2014-Apr-22 22:26 UTC. Time now 2014-Apr-24 06:19 UTC.
Position N 50°26' W 001°23'.

Length 232 m; draft 10.1 m.

Type: Cargo ship. MMSI: 266283000.

NotesDate/timePositionNaut miles runAvg speedWind from/ knotsBaromVisibWave heightAir tempDewpointWater temp
2014-Apr-22 22:26N 50°26' W 001°23'1315.4
2014-Apr-22 21:33N 50°33' W 001°04'1110.7
2014-Apr-22 20:33N 50°43' W 001°01'1312.6
2014-Apr-22 19:33N 50°50' W 001°18'5 5.3
2014-Apr-22 18:33N 50°54' W 001°24'0 0.0
2014-Apr-22 17:28N 50°54' W 001°24'0 0.0
2014-Apr-22 16:28N 50°54' W 001°24'0 0.0
2014-Apr-22 15:28N 50°54' W 001°24'0 0.0
2014-Apr-22 14:32N 50°54' W 001°24'0 0.0
2014-Apr-22 13:32N 50°54' W 001°24'0 0.0
2014-Apr-22 12:31N 50°54' W 001°24'0 0.0
2014-Apr-22 11:31N 50°54' W 001°24'0 0.0
2014-Apr-22 10:31N 50°54' W 001°24'0 0.0
2014-Apr-22 09:32N 50°54' W 001°24'0 0.0
2014-Apr-22 08:34N 50°54' W 001°24'6 6.4
2014-Apr-22 07:33N 50°49' W 001°17'1010.4
2014-Apr-22 06:34N 50°44' W 001°03'1212.2
2014-Apr-22 05:33N 50°36' W 000°48'1111.0
2014-Apr-22 04:33N 50°33' W 000°31'1312.5
2014-Apr-22 03:33N 50°31' W 000°12'1312.9
2014-Apr-22 02:33N 50°33' E 000°08'1312.8
2014-Apr-22 01:33N 50°37' E 000°27'1212.2
2014-Apr-22 00:34N 50°43' E 000°44'1312.3
2014-Apr-21 23:32N 50°50' E 001°00'1313.7
2014-Apr-21 22:33N 50°58' E 001°17'1414.5
2014-Apr-21 21:33N 51°08' E 001°34'1413.8
2014-Apr-21 20:34N 51°18' E 001°50'1111.4
2014-Apr-21 19:34N 51°24' E 002°05'1313.4
2014-Apr-21 18:33N 51°22' E 002°26'1212.1
2014-Apr-21 17:33N 51°22' E 002°45'1514.7
2014-Apr-21 16:34N 51°23' E 003°09'4 4.1
2014-Apr-21 15:33N 51°20' E 003°13'1 1.3
2014-Apr-21 14:33N 51°19' E 003°14'0 0.0
2014-Apr-21 13:33N 51°19' E 003°14'0 0.0
2014-Apr-21 12:33N 51°19' E 003°14'0 0.0
2014-Apr-21 11:33N 51°19' E 003°14'0 0.0
2014-Apr-21 10:33N 51°19' E 003°14'0 0.0
2014-Apr-21 09:33N 51°19' E 003°14'0 0.0
2014-Apr-21 08:27N 51°19' E 003°14'0 0.0
2014-Apr-21 07:33N 51°19' E 003°14'0 0.0
2014-Apr-21 06:33N 51°19' E 003°14'0 0.0
2014-Apr-21 05:33N 51°19' E 003°14'0 0.0
2014-Apr-21 04:33N 51°19' E 003°14'0 0.0
2014-Apr-21 03:33N 51°19' E 003°14'0 0.0
2014-Apr-21 02:33N 51°19' E 003°14'0 0.0
2014-Apr-21 01:27N 51°19' E 003°14'0 0.0
2014-Apr-21 00:33N 51°19' E 003°14'0 0.0
2014-Apr-20 23:33N 51°19' E 003°14'0 0.0
2014-Apr-20 22:33N 51°19' E 003°14'0 0.0
2014-Apr-20 21:33N 51°19' E 003°14'0 0.0
2014-Apr-20 20:33N 51°19' E 003°14'0 0.0
2014-Apr-20 19:33N 51°19' E 003°14'0 0.0
2014-Apr-20 18:33N 51°19' E 003°14'0 0.3
2014-Apr-20 17:33N 51°19' E 003°13'1 1.3
2014-Apr-20 16:33N 51°20' E 003°13'1312.6
2014-Apr-20 15:33N 51°25' E 002°54'7 6.6
2014-Apr-20 14:33N 51°26' E 002°44'5 5.2
2014-Apr-20 13:33N 51°31' E 002°45'2 2.4
2014-Apr-20 12:33N 51°29' E 002°42'2 1.9
2014-Apr-20 11:33N 51°31' E 002°44'3 2.7
2014-Apr-20 10:32N 51°28' E 002°42'2 2.3
2014-Apr-20 09:33N 51°31' E 002°41'1010.0
2014-Apr-20 08:33N 51°40' E 002°45'1110.5
2014-Apr-20 07:28N 51°52' E 002°45'1212.7
2014-Apr-20 06:32N 52°03' E 002°49'1413.2
2014-Apr-20 05:28N 52°15' E 003°02'1314.3
2014-Apr-20 04:33N 52°25' E 003°15'3815.9
2014-Apr-20 02:08N 52°55' E 003°54'1116.9
2014-Apr-20 01:30N 53°03' E 004°08'1414.7
2014-Apr-20 00:33N 53°11' E 004°26'1816.5
2014-Apr-19 23:26N 53°28' E 004°38'1415.8
2014-Apr-19 22:33N 53°33' E 004°60'1515.3
2014-Apr-19 21:33N 53°39' E 005°24'1615.3
2014-Apr-19 20:32N 53°44' E 005°48'1715.9
2014-Apr-19 19:30N 53°48' E 006°16'1617.2
2014-Apr-19 18:33N 53°53' E 006°42'1817.5
2014-Apr-19 17:34N 53°57' E 007°11'1716.9
2014-Apr-19 16:33N 54°01' E 007°39'1413.5
2014-Apr-19 15:33N 53°52' E 007°55'1716.7
2014-Apr-19 14:33N 53°43' E 008°18'1212.3
2014-Apr-19 13:33N 53°34' E 008°33'1 0.9
2014-Apr-19 12:34N 53°35' E 008°33'0 0.0
2014-Apr-19 11:33N 53°35' E 008°33'0 0.0
2014-Apr-19 10:33N 53°35' E 008°33'0 0.0
2014-Apr-19 09:33N 53°35' E 008°33'0 0.0
2014-Apr-19 08:33N 53°35' E 008°33'0 0.0
2014-Apr-19 07:33N 53°35' E 008°33'0 0.0
2014-Apr-19 06:33N 53°35' E 008°33'0 0.0
2014-Apr-19 05:33N 53°35' E 008°33'0 0.0
2014-Apr-19 04:33N 53°35' E 008°33'0 0.0
2014-Apr-19 03:33N 53°35' E 008°33'0 0.0
2014-Apr-19 02:33N 53°35' E 008°33'0 0.0
2014-Apr-19 01:33N 53°35' E 008°33'0 0.0
2014-Apr-19 00:33N 53°35' E 008°33'0 0.0
2014-Apr-18 23:33N 53°35' E 008°33'0 0.0
2014-Apr-18 22:33N 53°35' E 008°33'0 0.0
2014-Apr-18 21:33N 53°35' E 008°33'0 0.0
2014-Apr-18 20:33N 53°35' E 008°33'0 0.0
2014-Apr-18 19:33N 53°35' E 008°33'0 0.0
2014-Apr-18 18:33N 53°35' E 008°33'0 0.0
2014-Apr-18 17:33N 53°35' E 008°33'0 0.0
2014-Apr-18 16:33N 53°35' E 008°33'0 0.0
2014-Apr-18 15:33N 53°35' E 008°33'0 0.0
2014-Apr-18 14:33N 53°35' E 008°33'0 0.0
2014-Apr-18 13:33N 53°35' E 008°33'0 0.0
2014-Apr-18 12:33N 53°35' E 008°33'0 0.0
2014-Apr-18 11:33N 53°35' E 008°33'0 0.0
2014-Apr-18 10:33N 53°35' E 008°33'0 0.0
2014-Apr-18 09:33N 53°35' E 008°33'0 0.0
2014-Apr-18 08:33N 53°35' E 008°33'0 0.0
2014-Apr-18 07:33N 53°35' E 008°33'0 0.0
2014-Apr-18 06:33N 53°35' E 008°33'0 0.0
2014-Apr-18 05:33N 53°35' E 008°33'0 0.0
2014-Apr-18 04:33N 53°35' E 008°33'0 0.0
2014-Apr-18 03:33N 53°35' E 008°33'0 0.0
2014-Apr-18 02:33N 53°35' E 008°33'0 0.0
2014-Apr-18 01:33N 53°35' E 008°33'0 0.0
2014-Apr-18 00:33N 53°35' E 008°33'0 0.0
2014-Apr-17 23:33N 53°35' E 008°33'0 0.0
2014-Apr-17 22:33N 53°35' E 008°33'0 0.0
2014-Apr-17 21:33N 53°35' E 008°33'0 0.0
2014-Apr-17 20:33N 53°35' E 008°33'0 0.0
2014-Apr-17 19:33N 53°35' E 008°33'0 0.0
2014-Apr-17 18:33N 53°35' E 008°33'0 0.0
2014-Apr-17 17:33N 53°35' E 008°33'0 0.0
2014-Apr-17 16:33N 53°35' E 008°33'0 0.0
2014-Apr-17 15:33N 53°35' E 008°33'0 0.0
2014-Apr-17 14:33N 53°35' E 008°33'0 0.0
2014-Apr-17 13:33N 53°35' E 008°33'0 0.0
2014-Apr-17 12:33N 53°35' E 008°33'0 0.0
2014-Apr-17 11:33N 53°35' E 008°33'0 0.0
2014-Apr-17 10:33N 53°35' E 008°33'0 0.0
2014-Apr-17 09:33N 53°35' E 008°33'0 0.0
2014-Apr-17 08:33N 53°35' E 008°33'0 0.0
2014-Apr-17 07:33N 53°35' E 008°33'0 0.0
2014-Apr-17 06:33N 53°35' E 008°33'0 0.0
2014-Apr-17 05:33N 53°35' E 008°33'0 0.0
2014-Apr-17 04:33N 53°35' E 008°33'0 0.0
2014-Apr-17 03:33N 53°35' E 008°33'0 0.0
2014-Apr-17 02:33N 53°35' E 008°33'0 0.0
2014-Apr-17 01:33N 53°35' E 008°33'0 0.0
2014-Apr-17 00:33N 53°35' E 008°33'0 0.0
2014-Apr-16 23:33N 53°35' E 008°33'0 0.0
2014-Apr-16 22:33N 53°35' E 008°33'0 0.0
2014-Apr-16 21:33N 53°35' E 008°33'0 0.0
2014-Apr-16 20:33N 53°35' E 008°33'0 0.0
2014-Apr-16 19:33N 53°35' E 008°33'0 0.1
2014-Apr-16 18:33N 53°35' E 008°33'1 0.6
2014-Apr-16 17:33N 53°34' E 008°33'0 0.0
2014-Apr-16 16:33N 53°34' E 008°33'0 0.0
2014-Apr-16 15:33N 53°34' E 008°33'0 0.0
2014-Apr-16 14:33N 53°34' E 008°33'0 0.0
2014-Apr-16 13:33N 53°34' E 008°33'0 0.0
2014-Apr-16 12:33N 53°34' E 008°33'0 0.0
2014-Apr-16 11:33N 53°34' E 008°33'0 0.0
2014-Apr-16 10:33N 53°34' E 008°33'0 0.0
2014-Apr-16 09:33N 53°34' E 008°33'0 0.0
2014-Apr-16 08:33N 53°34' E 008°33'0 0.0
2014-Apr-16 07:33N 53°34' E 008°33'0 0.0
2014-Apr-16 06:33N 53°34' E 008°33'0 0.0
2014-Apr-16 05:33N 53°34' E 008°33'0 0.0
2014-Apr-16 04:33N 53°34' E 008°33'0 0.0
2014-Apr-16 03:33N 53°34' E 008°33'0 0.0
2014-Apr-16 02:33N 53°34' E 008°33'0 0.0
2014-Apr-16 01:33N 53°34' E 008°33'0 0.0
2014-Apr-16 00:33N 53°34' E 008°33'0 0.0
2014-Apr-15 23:33N 53°34' E 008°33'0 0.0
2014-Apr-15 22:33N 53°34' E 008°33'0 0.0
2014-Apr-15 21:33N 53°34' E 008°33'0 0.0
2014-Apr-15 20:33N 53°34' E 008°33'0 0.0
2014-Apr-15 19:33N 53°34' E 008°33'0 0.0
2014-Apr-15 18:33N 53°34' E 008°33'0 0.0
2014-Apr-15 17:33N 53°34' E 008°33'0 0.0
2014-Apr-15 16:33N 53°34' E 008°33'0 0.0
2014-Apr-15 15:33N 53°34' E 008°33'0 0.0
2014-Apr-15 14:33N 53°34' E 008°33'0 0.0
2014-Apr-15 12:34N 53°34' E 008°33'0 0.0
2014-Apr-15 11:30N 53°34' E 008°33'0 0.0
2014-Apr-15 10:30N 53°34' E 008°33'0 0.0
2014-Apr-15 09:33N 53°34' E 008°33'0 0.0
2014-Apr-15 08:33N 53°34' E 008°33'0 0.0
2014-Apr-15 07:33N 53°34' E 008°33'0 0.0
2014-Apr-15 06:33N 53°34' E 008°33'0 0.0
2014-Apr-15 05:33N 53°34' E 008°33'1 0.4
2014-Apr-15 03:34N 53°35' E 008°33'0 0.0
2014-Apr-15 02:34N 53°35' E 008°33'0 0.0
2014-Apr-15 01:34N 53°35' E 008°33'0 0.0
2014-Apr-15 00:34N 53°35' E 008°33'0 0.0
2014-Apr-14 23:34N 53°35' E 008°33'0 0.0
2014-Apr-14 22:34N 53°35' E 008°33'0 0.0
2014-Apr-14 21:34N 53°35' E 008°33'0 0.0
2014-Apr-14 20:34N 53°35' E 008°33'0 0.0
2014-Apr-14 19:34N 53°35' E 008°33'0 0.0
2014-Apr-14 18:34N 53°35' E 008°33'0 0.0
2014-Apr-14 17:34N 53°35' E 008°33'0 0.0
2014-Apr-14 16:34N 53°35' E 008°33'0 0.0
2014-Apr-14 15:34N 53°35' E 008°33'0 0.0
2014-Apr-14 14:34N 53°35' E 008°33'0 0.0
2014-Apr-14 13:34N 53°35' E 008°33'0 0.0
2014-Apr-14 11:34N 53°35' E 008°33'0 0.0
2014-Apr-14 10:34N 53°35' E 008°33'0 0.0
2014-Apr-14 09:34N 53°35' E 008°33'0 0.0
2014-Apr-14 08:34N 53°35' E 008°33'0 0.0
2014-Apr-14 07:33N 53°35' E 008°33'0 0.0
2014-Apr-14 06:33N 53°35' E 008°33'0 0.0
2014-Apr-14 05:33N 53°35' E 008°33'0 0.0
2014-Apr-13 22:33N 53°35' E 008°33'0 0.0
2014-Apr-13 21:33N 53°35' E 008°33'0 0.0
2014-Apr-13 20:33N 53°35' E 008°33'0 0.0
2014-Apr-13 19:33N 53°35' E 008°33'0 0.0
2014-Apr-13 18:33N 53°35' E 008°33'0 0.0
2014-Apr-13 17:33N 53°35' E 008°33'0 0.0
2014-Apr-13 16:33N 53°35' E 008°33'0 0.0
2014-Apr-13 15:33N 53°35' E 008°33'0 0.0
2014-Apr-13 14:33N 53°35' E 008°33'1 0.6
2014-Apr-13 13:33N 53°34' E 008°33'8 7.9
2014-Apr-13 12:34N 53°40' E 008°23'1616.0
2014-Apr-13 11:34N 53°50' E 008°03'1312.8
2014-Apr-13 10:33N 53°53' E 007°42'1110.8
2014-Apr-13 09:32N 53°53' E 007°23'1010.5
2014-Apr-13 08:33N 53°51' E 007°06'1111.0
2014-Apr-13 07:33N 53°48' E 006°48'1211.2
2014-Apr-13 06:31N 53°46' E 006°29'1211.1
2014-Apr-13 05:28N 53°43' E 006°10'1314.5
2014-Apr-13 04:33N 53°38' E 005°49'1515.1
2014-Apr-13 03:33N 53°33' E 005°25'1515.0
2014-Apr-13 02:34N 53°28' E 005°01'1414.3
2014-Apr-13 01:33N 53°21' E 004°40'1515.4
2014-Apr-13 00:33N 53°08' E 004°28'1413.9
2014-Apr-12 23:33N 52°56' E 004°17'1413.6
2014-Apr-12 22:33N 52°44' E 004°04'  

Dump ship's entire track history

sailing weather and tide predictions

Oberon — SKJF — position and weather